createdAt,value
2022-12-31T00:00:01.100Z,0.80
2022-12-31T00:02:34.659Z,0.80
2022-12-31T00:05:09.377Z,0.80
2022-12-31T00:10:16.806Z,0.80
2022-12-31T00:12:50.265Z,0.80
2022-12-31T00:15:23.953Z,0.80
2022-12-31T00:17:57.453Z,0.70
2022-12-31T00:20:31.308Z,0.70
2022-12-31T00:23:04.989Z,0.70
2022-12-31T00:25:40.163Z,0.70
2022-12-31T00:28:13.618Z,0.70
2022-12-31T00:30:47.097Z,0.70
2022-12-31T00:33:20.709Z,0.80
2022-12-31T00:35:54.145Z,0.80
2022-12-31T00:38:27.764Z,1.00
2022-12-31T00:41:02.643Z,1.20
2022-12-31T00:43:37.045Z,1.30
2022-12-31T00:46:11.709Z,1.50
2022-12-31T00:48:45.287Z,1.60
2022-12-31T00:51:21.050Z,1.80
2022-12-31T00:53:54.519Z,1.90
2022-12-31T00:56:31.391Z,2.00
2022-12-31T00:59:04.935Z,2.00
2022-12-31T01:01:40.495Z,2.00
2022-12-31T01:04:15.760Z,2.00
2022-12-31T01:06:49.654Z,1.90
2022-12-31T01:09:23.460Z,1.90
2022-12-31T01:11:58.346Z,1.80
2022-12-31T01:14:32.958Z,1.70
2022-12-31T01:17:06.417Z,1.60
2022-12-31T01:19:40.345Z,1.60
2022-12-31T01:22:13.879Z,1.60
2022-12-31T01:24:47.534Z,1.50
2022-12-31T01:27:22.381Z,1.40
2022-12-31T01:29:56.007Z,1.40
2022-12-31T01:32:29.466Z,1.30
2022-12-31T01:35:03.253Z,1.30
2022-12-31T01:37:36.705Z,1.20
2022-12-31T01:40:11.086Z,1.10
2022-12-31T01:42:45.929Z,1.00
2022-12-31T01:45:19.583Z,1.00
2022-12-31T01:47:58.217Z,0.90
2022-12-31T01:50:34.180Z,0.80
2022-12-31T01:53:11.573Z,0.80
2022-12-31T01:55:49.587Z,0.80
2022-12-31T01:58:29.327Z,0.80
2022-12-31T02:01:03.392Z,0.70
2022-12-31T02:03:37.662Z,0.70
2022-12-31T02:06:17.609Z,0.60
2022-12-31T02:08:51.822Z,0.60
2022-12-31T02:11:29.657Z,0.50
2022-12-31T02:14:07.885Z,0.50
2022-12-31T02:16:49.945Z,0.50
2022-12-31T02:20:03.305Z,0.50
2022-12-31T02:23:07.035Z,0.40
2022-12-31T02:26:17.565Z,0.30
2022-12-31T02:29:21.944Z,0.30
2022-12-31T02:32:01.512Z,0.30
2022-12-31T02:34:41.115Z,0.30
2022-12-31T02:37:17.075Z,0.20
2022-12-31T02:39:51.127Z,0.20
2022-12-31T02:42:24.910Z,0.20
2022-12-31T02:44:58.350Z,0.20
2022-12-31T02:47:48.134Z,0.20
2022-12-31T02:50:38.747Z,0.20
2022-12-31T02:53:23.873Z,0.20
2022-12-31T02:56:04.995Z,0.10
2022-12-31T02:59:01.154Z,0.20
2022-12-31T03:01:55.517Z,0.10
2022-12-31T03:04:36.476Z,0.10
2022-12-31T03:07:12.504Z,0.10
2022-12-31T03:09:46.158Z,0.10
2022-12-31T03:12:40.133Z,0.00
2022-12-31T03:15:21.906Z,0.10
2022-12-31T03:18:01.233Z,0.10
2022-12-31T03:20:56.792Z,0.10
2022-12-31T03:23:33.824Z,0.00
2022-12-31T03:26:09.879Z,0.00
2022-12-31T03:28:47.879Z,0.10
2022-12-31T03:31:21.562Z,0.20
2022-12-31T03:33:55.297Z,0.20
2022-12-31T03:36:30.319Z,0.20
2022-12-31T03:39:04.165Z,0.20
2022-12-31T03:41:37.652Z,0.30
2022-12-31T03:44:11.517Z,0.30
2022-12-31T03:46:45.010Z,0.40
2022-12-31T03:49:18.887Z,0.50
2022-12-31T03:51:53.761Z,0.50
2022-12-31T03:54:27.401Z,0.60
2022-12-31T03:57:01.859Z,0.60
2022-12-31T03:59:35.686Z,0.70
2022-12-31T04:02:09.398Z,0.70
2022-12-31T04:04:43.111Z,0.80
2022-12-31T04:07:18.096Z,0.90
2022-12-31T04:09:51.760Z,1.00
2022-12-31T04:12:25.266Z,1.00
2022-12-31T04:14:58.939Z,1.10
2022-12-31T04:17:32.727Z,1.20
2022-12-31T04:20:07.433Z,1.20
2022-12-31T04:22:42.418Z,1.30
2022-12-31T04:25:18.013Z,1.40
2022-12-31T04:27:51.452Z,1.50
2022-12-31T04:30:25.235Z,1.50
2022-12-31T04:32:58.906Z,1.60
2022-12-31T04:35:32.374Z,1.80
2022-12-31T04:38:07.459Z,2.30
2022-12-31T04:41:00.986Z,2.80
2022-12-31T04:43:34.799Z,3.10
2022-12-31T04:46:08.554Z,3.40
2022-12-31T04:48:42.589Z,3.90
2022-12-31T04:51:16.467Z,4.20
2022-12-31T04:53:51.905Z,4.40
2022-12-31T04:56:25.845Z,4.60
2022-12-31T04:58:59.718Z,4.80
2022-12-31T05:01:33.847Z,5.00
2022-12-31T05:04:07.373Z,5.30
2022-12-31T05:06:41.141Z,5.40
2022-12-31T05:09:16.004Z,5.50
2022-12-31T05:11:49.656Z,5.60
2022-12-31T05:14:23.335Z,5.80
2022-12-31T05:16:58.632Z,5.90
2022-12-31T05:19:32.159Z,5.90
2022-12-31T05:22:23.569Z,6.00
2022-12-31T05:24:59.300Z,6.10
2022-12-31T05:27:33.036Z,6.10
2022-12-31T05:30:07.764Z,6.10
2022-12-31T05:32:41.905Z,6.20
2022-12-31T05:35:15.658Z,6.20
2022-12-31T05:37:49.119Z,6.10
2022-12-31T05:40:24.184Z,6.10
2022-12-31T05:42:57.711Z,6.10
2022-12-31T05:45:31.601Z,6.10
2022-12-31T05:48:05.441Z,6.10
2022-12-31T05:50:38.914Z,6.10
2022-12-31T05:53:14.564Z,6.20
2022-12-31T05:55:49.879Z,6.20
2022-12-31T05:58:23.350Z,6.20
2022-12-31T06:00:57.043Z,6.20
2022-12-31T06:03:30.618Z,6.20
2022-12-31T06:06:04.134Z,6.20
2022-12-31T06:08:37.790Z,6.20
2022-12-31T06:11:12.844Z,6.20
2022-12-31T06:13:46.337Z,6.20
2022-12-31T06:16:20.074Z,6.10
2022-12-31T06:18:53.698Z,6.10
2022-12-31T06:21:27.471Z,6.10
2022-12-31T06:24:01.226Z,6.10
2022-12-31T06:26:36.404Z,6.10
2022-12-31T06:29:10.446Z,6.10
2022-12-31T06:31:44.460Z,6.10
2022-12-31T06:34:18.008Z,6.10
2022-12-31T06:36:51.666Z,6.20
2022-12-31T06:39:25.403Z,6.20
2022-12-31T06:42:00.296Z,6.20
2022-12-31T06:44:33.826Z,6.20
2022-12-31T06:47:07.471Z,6.20
2022-12-31T06:49:41.181Z,6.20
2022-12-31T06:52:14.958Z,6.20
2022-12-31T06:54:49.182Z,6.20
2022-12-31T06:57:24.679Z,6.20
2022-12-31T06:59:58.727Z,6.20
2022-12-31T07:02:51.301Z,6.20
2022-12-31T07:05:43.098Z,6.20
2022-12-31T07:08:27.702Z,6.20
2022-12-31T07:11:06.443Z,6.20
2022-12-31T07:14:00.466Z,6.30
2022-12-31T07:16:45.469Z,6.30
2022-12-31T07:19:28.668Z,6.30
2022-12-31T07:22:03.811Z,6.30
2022-12-31T07:24:37.905Z,6.30
2022-12-31T07:27:30.909Z,6.30
2022-12-31T07:30:11.263Z,6.30
2022-12-31T07:33:33.316Z,6.20
2022-12-31T07:36:21.499Z,6.20
2022-12-31T07:39:01.535Z,6.20
2022-12-31T07:41:52.064Z,6.10
2022-12-31T07:44:42.229Z,6.10
2022-12-31T07:47:23.123Z,6.10
2022-12-31T07:49:57.445Z,6.10
2022-12-31T07:52:31.467Z,6.10
2022-12-31T07:55:05.757Z,6.00
2022-12-31T07:57:47.020Z,6.00
2022-12-31T08:00:21.360Z,6.00
2022-12-31T08:03:15.278Z,5.90
2022-12-31T08:05:53.575Z,5.90
2022-12-31T08:08:37.436Z,5.80
2022-12-31T08:11:18.001Z,5.80
2022-12-31T08:13:53.983Z,5.80
2022-12-31T08:16:28.123Z,5.80
2022-12-31T08:19:03.991Z,5.80
2022-12-31T08:21:55.677Z,5.90
2022-12-31T08:24:38.030Z,6.00
2022-12-31T08:27:20.204Z,6.00
2022-12-31T08:30:03.583Z,6.10
2022-12-31T08:32:44.240Z,6.20
2022-12-31T08:35:34.968Z,6.30
2022-12-31T08:38:18.613Z,6.40
2022-12-31T08:40:59.920Z,6.40
2022-12-31T08:43:45.765Z,6.50
2022-12-31T08:46:27.262Z,6.60
2022-12-31T08:49:01.360Z,6.70
2022-12-31T08:51:37.047Z,6.80
2022-12-31T08:54:12.396Z,6.90
2022-12-31T08:56:52.747Z,6.90
2022-12-31T08:59:35.166Z,7.00
2022-12-31T09:02:35.785Z,7.00
2022-12-31T09:05:19.769Z,7.00
2022-12-31T09:08:04.952Z,7.10
2022-12-31T09:10:47.416Z,7.10
2022-12-31T09:13:30.640Z,7.10
2022-12-31T09:16:14.058Z,7.10
2022-12-31T09:18:47.941Z,7.10
2022-12-31T09:21:21.865Z,7.20
2022-12-31T09:23:57.359Z,7.20
2022-12-31T09:26:40.451Z,7.10
2022-12-31T09:29:24.591Z,7.10
2022-12-31T09:32:03.575Z,7.20
2022-12-31T09:34:44.222Z,7.20
2022-12-31T09:37:23.005Z,7.20
2022-12-31T09:40:01.622Z,7.30
2022-12-31T09:42:58.985Z,7.40
2022-12-31T09:45:56.346Z,7.30
2022-12-31T09:48:57.217Z,7.40
2022-12-31T09:51:32.300Z,7.50
2022-12-31T09:54:35.055Z,7.60
2022-12-31T09:57:32.680Z,7.80
2022-12-31T10:00:13.502Z,7.90
2022-12-31T10:03:06.447Z,7.90
2022-12-31T10:05:44.263Z,8.00
2022-12-31T10:08:31.075Z,8.00
2022-12-31T10:11:13.058Z,8.00
2022-12-31T10:14:00.564Z,8.00
2022-12-31T10:17:01.278Z,8.00
2022-12-31T10:20:05.770Z,8.00
2022-12-31T10:23:04.993Z,8.00
2022-12-31T10:25:54.682Z,7.90
2022-12-31T10:28:38.735Z,7.90
2022-12-31T10:31:30.209Z,7.90
2022-12-31T10:34:15.759Z,7.90
2022-12-31T10:36:56.131Z,7.90
2022-12-31T10:39:51.373Z,7.90
2022-12-31T10:42:56.978Z,7.90
2022-12-31T10:46:20.880Z,8.00
2022-12-31T10:49:24.939Z,8.00
2022-12-31T10:52:42.095Z,8.00
2022-12-31T10:55:57.702Z,8.00
2022-12-31T10:59:08.695Z,8.00
2022-12-31T11:01:50.281Z,8.10
2022-12-31T11:05:07.539Z,8.20
2022-12-31T11:07:57.506Z,8.20
2022-12-31T11:11:02.095Z,8.30
2022-12-31T11:14:13.086Z,8.30
2022-12-31T11:17:11.467Z,8.40
2022-12-31T11:19:58.793Z,8.40
2022-12-31T11:22:52.100Z,8.40
2022-12-31T11:25:41.212Z,8.40
2022-12-31T11:28:42.405Z,8.40
2022-12-31T11:31:51.195Z,8.40
2022-12-31T11:34:49.174Z,8.50
2022-12-31T11:37:33.767Z,8.60
2022-12-31T11:40:33.464Z,8.60
2022-12-31T11:43:20.951Z,8.60
2022-12-31T11:46:48.638Z,8.60
2022-12-31T11:49:43.994Z,8.60
2022-12-31T11:52:40.931Z,8.60
2022-12-31T11:55:36.173Z,8.60
2022-12-31T11:58:15.441Z,8.60
2022-12-31T12:00:56.186Z,8.60
2022-12-31T12:03:30.432Z,8.70
2022-12-31T12:06:04.797Z,8.70
2022-12-31T12:08:39.100Z,8.70
2022-12-31T12:11:21.791Z,8.60
2022-12-31T12:13:55.152Z,8.60
2022-12-31T12:16:29.825Z,8.60
2022-12-31T12:19:05.677Z,8.60
2022-12-31T12:21:47.564Z,8.60
2022-12-31T12:24:23.171Z,8.60
2022-12-31T12:26:58.779Z,8.60
2022-12-31T12:29:35.294Z,8.60
2022-12-31T12:32:16.925Z,8.60
2022-12-31T12:34:50.499Z,8.60
2022-12-31T12:37:30.227Z,8.60
2022-12-31T12:40:06.579Z,8.60
2022-12-31T12:42:49.675Z,8.60
2022-12-31T12:45:25.140Z,8.60
2022-12-31T12:48:02.284Z,8.60
2022-12-31T12:50:40.534Z,8.60
2022-12-31T12:53:29.102Z,8.60
2022-12-31T12:56:13.557Z,8.60
2022-12-31T12:59:01.763Z,8.50
2022-12-31T13:01:40.683Z,8.50
2022-12-31T13:04:37.201Z,8.40
2022-12-31T13:07:22.792Z,8.50
2022-12-31T13:10:16.861Z,8.40
2022-12-31T13:15:57.820Z,8.30
2022-12-31T13:18:44.402Z,8.30
2022-12-31T13:21:32.840Z,8.30
2022-12-31T13:24:18.852Z,8.30
2022-12-31T13:26:58.095Z,8.30
2022-12-31T13:29:34.407Z,8.30
2022-12-31T13:32:13.810Z,8.30
2022-12-31T13:34:50.674Z,8.30
2022-12-31T13:37:29.532Z,8.30
2022-12-31T13:40:07.877Z,8.30
2022-12-31T13:42:48.409Z,8.10
2022-12-31T13:45:28.156Z,8.10
2022-12-31T13:48:08.270Z,8.10
2022-12-31T13:50:51.168Z,8.00
2022-12-31T13:53:28.157Z,7.90
2022-12-31T13:56:08.315Z,7.80
2022-12-31T13:58:47.034Z,7.80
2022-12-31T14:01:23.427Z,7.70
2022-12-31T14:04:06.395Z,7.60
2022-12-31T14:06:46.313Z,7.50
2022-12-31T14:09:23.734Z,7.50
2022-12-31T14:12:21.668Z,7.40
2022-12-31T14:15:04.157Z,7.40
2022-12-31T14:17:41.695Z,7.30
2022-12-31T14:20:25.278Z,7.30
2022-12-31T14:23:08.580Z,7.30
2022-12-31T14:25:49.105Z,7.30
2022-12-31T14:28:31.653Z,7.20
2022-12-31T14:31:13.900Z,7.20
2022-12-31T14:33:56.604Z,7.20
2022-12-31T14:36:41.905Z,7.20
2022-12-31T14:39:29.957Z,7.20
2022-12-31T14:42:17.060Z,7.10
2022-12-31T14:45:23.045Z,7.10
2022-12-31T14:48:03.273Z,7.00
2022-12-31T14:50:37.871Z,6.90
2022-12-31T14:53:23.794Z,6.90
2022-12-31T14:56:02.568Z,6.80
2022-12-31T14:58:37.901Z,6.80
2022-12-31T15:01:22.681Z,6.70
2022-12-31T15:03:58.699Z,6.70
2022-12-31T15:06:52.123Z,6.60
2022-12-31T15:09:44.752Z,6.60
2022-12-31T15:12:34.375Z,6.50
2022-12-31T15:15:37.502Z,6.50
2022-12-31T15:18:32.981Z,6.40
2022-12-31T15:21:32.853Z,6.40
2022-12-31T15:24:19.306Z,6.30
2022-12-31T15:26:57.435Z,6.20
2022-12-31T15:29:33.966Z,6.20
2022-12-31T15:32:16.947Z,6.10
2022-12-31T15:35:02.994Z,6.10
2022-12-31T15:37:37.235Z,6.10
2022-12-31T15:40:21.200Z,6.00
2022-12-31T15:42:59.814Z,6.00
2022-12-31T15:45:36.441Z,6.00
2022-12-31T15:48:16.501Z,6.00
2022-12-31T15:50:52.613Z,5.90
2022-12-31T15:53:30.579Z,5.90
2022-12-31T15:56:04.454Z,5.90
2022-12-31T15:58:39.989Z,5.90
2022-12-31T16:01:17.916Z,5.90
2022-12-31T16:03:56.668Z,5.80
2022-12-31T16:06:33.948Z,5.80
2022-12-31T16:09:11.001Z,5.80
2022-12-31T16:11:44.850Z,5.70
2022-12-31T16:14:24.821Z,5.60
2022-12-31T16:17:00.992Z,5.60
2022-12-31T16:19:37.102Z,5.60
2022-12-31T16:22:15.346Z,5.60
2022-12-31T16:25:28.918Z,5.60
2022-12-31T16:27:50.931Z,5.50
2022-12-31T16:30:29.067Z,5.50
2022-12-31T16:33:04.332Z,5.50
2022-12-31T16:35:38.426Z,5.50
2022-12-31T16:38:15.145Z,5.50
2022-12-31T16:41:08.898Z,5.50
2022-12-31T16:43:43.798Z,5.50
2022-12-31T16:46:23.036Z,5.40
2022-12-31T16:48:59.429Z,5.40
2022-12-31T16:51:35.218Z,5.40
2022-12-31T16:54:19.209Z,5.30
2022-12-31T16:56:53.581Z,5.30
2022-12-31T16:59:34.970Z,5.30
2022-12-31T17:02:19.304Z,5.30
2022-12-31T17:04:56.323Z,5.20
2022-12-31T17:07:41.683Z,5.20
2022-12-31T17:10:21.516Z,5.20
2022-12-31T17:13:27.666Z,5.20
2022-12-31T17:15:52.649Z,5.10
2022-12-31T17:18:30.369Z,5.00
2022-12-31T17:21:09.077Z,5.10
2022-12-31T17:23:44.881Z,5.00
2022-12-31T17:26:25.504Z,5.00
2022-12-31T17:29:00.556Z,5.00
2022-12-31T17:31:36.853Z,4.90
2022-12-31T17:34:23.614Z,4.90
2022-12-31T17:37:02.295Z,4.90
2022-12-31T17:39:47.924Z,4.90
2022-12-31T17:42:29.517Z,4.90
2022-12-31T17:45:07.021Z,4.90
2022-12-31T17:47:42.673Z,4.80
2022-12-31T17:50:23.613Z,4.80
2022-12-31T17:53:00.444Z,4.80
2022-12-31T17:55:34.207Z,4.80
2022-12-31T17:58:08.404Z,4.80
2022-12-31T18:00:42.005Z,4.90
2022-12-31T18:03:15.517Z,4.80
2022-12-31T18:05:50.407Z,4.80
2022-12-31T18:08:24.125Z,4.80
2022-12-31T18:10:58.049Z,4.90
2022-12-31T18:13:31.596Z,4.80
2022-12-31T18:16:05.409Z,4.80
2022-12-31T18:18:40.123Z,4.80
2022-12-31T18:21:20.963Z,4.80
2022-12-31T18:26:32.695Z,4.80
2022-12-31T18:29:15.472Z,4.80
2022-12-31T18:31:50.283Z,4.80
2022-12-31T18:34:23.778Z,4.80
2022-12-31T18:37:00.885Z,4.80
2022-12-31T18:39:34.334Z,4.80
2022-12-31T18:42:07.923Z,4.80
2022-12-31T18:44:41.440Z,4.70
2022-12-31T18:47:16.947Z,4.70
2022-12-31T18:49:50.524Z,4.70
2022-12-31T18:52:25.536Z,4.70
2022-12-31T18:54:59.183Z,4.70
2022-12-31T18:57:32.694Z,4.70
2022-12-31T19:00:07.623Z,4.60
2022-12-31T19:02:41.123Z,4.60
2022-12-31T19:05:26.869Z,4.70
2022-12-31T19:08:01.910Z,4.70
2022-12-31T19:10:35.970Z,4.60
2022-12-31T19:13:12.945Z,4.60
2022-12-31T19:15:48.368Z,4.60
2022-12-31T19:18:21.894Z,4.60
2022-12-31T19:20:55.411Z,4.60
2022-12-31T19:23:30.313Z,4.60
2022-12-31T19:26:03.797Z,4.50
2022-12-31T19:28:37.297Z,4.50
2022-12-31T19:31:10.790Z,4.50
2022-12-31T19:33:44.399Z,4.50
2022-12-31T19:36:19.051Z,4.50
2022-12-31T19:38:53.887Z,4.50
2022-12-31T19:41:27.379Z,4.50
2022-12-31T19:44:01.473Z,4.40
2022-12-31T19:46:35.013Z,4.40
2022-12-31T19:49:08.543Z,4.40
2022-12-31T19:51:42.473Z,4.30
2022-12-31T19:54:17.392Z,4.30
2022-12-31T19:56:50.962Z,4.30
2022-12-31T19:59:24.567Z,4.30
2022-12-31T20:01:58.144Z,4.30
2022-12-31T20:04:31.763Z,4.30
2022-12-31T20:07:05.323Z,4.30
2022-12-31T20:09:40.230Z,4.30
2022-12-31T20:12:13.690Z,4.30
2022-12-31T20:14:47.221Z,4.30
2022-12-31T20:17:20.976Z,4.30
2022-12-31T20:19:54.549Z,4.20
2022-12-31T20:22:28.182Z,4.10
2022-12-31T20:25:03.115Z,4.10
2022-12-31T20:27:38.532Z,4.10
2022-12-31T20:30:12.807Z,4.10
2022-12-31T20:32:46.240Z,4.10
2022-12-31T20:35:20.179Z,4.10
2022-12-31T20:37:53.698Z,4.10
2022-12-31T20:40:28.642Z,4.20
2022-12-31T20:43:02.152Z,4.10
2022-12-31T20:45:35.615Z,4.10
2022-12-31T20:48:09.264Z,4.00
2022-12-31T20:50:42.727Z,4.00
2022-12-31T20:53:16.208Z,4.10
2022-12-31T20:55:51.143Z,4.10
2022-12-31T20:58:24.651Z,4.10
2022-12-31T21:00:58.380Z,4.10
2022-12-31T21:06:25.906Z,4.20
2022-12-31T21:09:01.182Z,4.20
2022-12-31T21:11:54.177Z,4.20
2022-12-31T21:14:27.416Z,4.20
2022-12-31T21:17:00.878Z,4.20
2022-12-31T21:19:34.356Z,4.20
2022-12-31T21:22:07.801Z,4.20
2022-12-31T21:24:41.272Z,4.20
2022-12-31T21:27:16.162Z,4.30
2022-12-31T21:30:17.208Z,4.30
2022-12-31T21:32:43.235Z,4.30
2022-12-31T21:35:42.647Z,4.30
2022-12-31T21:38:10.501Z,4.30
2022-12-31T21:40:44.849Z,4.30
2022-12-31T21:43:19.849Z,4.30
2022-12-31T21:46:01.853Z,4.40
2022-12-31T21:48:35.618Z,4.40
2022-12-31T21:51:12.888Z,4.40
2022-12-31T21:53:46.428Z,4.40
2022-12-31T21:56:21.205Z,4.40
2022-12-31T21:59:15.313Z,4.40
2022-12-31T22:02:05.999Z,4.40
2022-12-31T22:07:33.278Z,4.40
2022-12-31T22:10:07.501Z,4.40
2022-12-31T22:12:41.171Z,4.40
2022-12-31T22:15:16.438Z,4.40
2022-12-31T22:17:50.102Z,4.40
2022-12-31T22:20:27.908Z,4.40
2022-12-31T22:23:02.273Z,4.40
2022-12-31T22:25:36.245Z,4.40
2022-12-31T22:28:37.630Z,4.40
2022-12-31T22:31:05.156Z,4.40
2022-12-31T22:33:39.006Z,4.50
2022-12-31T22:36:14.681Z,4.40
2022-12-31T22:38:48.829Z,4.50
2022-12-31T22:41:23.296Z,4.50
2022-12-31T22:44:03.473Z,4.50
2022-12-31T22:46:38.744Z,4.50
2022-12-31T22:49:12.487Z,4.50
2022-12-31T22:51:55.795Z,4.50
2022-12-31T22:54:32.519Z,4.50
2022-12-31T22:57:06.090Z,4.50
2022-12-31T22:59:39.902Z,4.60
2022-12-31T23:02:14.808Z,4.60
2022-12-31T23:04:48.741Z,4.60
2022-12-31T23:07:22.195Z,4.60
2022-12-31T23:10:13.086Z,4.60
2022-12-31T23:12:46.601Z,4.60
2022-12-31T23:15:37.473Z,4.60
2022-12-31T23:18:29.413Z,4.60
2022-12-31T23:21:20.314Z,4.60
2022-12-31T23:23:55.101Z,4.60
2022-12-31T23:26:28.864Z,4.60
2022-12-31T23:29:02.717Z,4.60
2022-12-31T23:31:36.374Z,4.60
2022-12-31T23:34:11.248Z,4.60
2022-12-31T23:36:45.039Z,4.60
2022-12-31T23:39:18.506Z,4.60
2022-12-31T23:41:52.138Z,4.60
2022-12-31T23:44:25.652Z,4.60
2022-12-31T23:46:59.379Z,4.60
2022-12-31T23:49:34.273Z,4.70
2022-12-31T23:52:07.773Z,4.70
2022-12-31T23:54:41.524Z,4.70
2022-12-31T23:57:14.978Z,4.70
2022-12-31T23:59:48.489Z,4.70
